createdAt,value
2022-10-13T00:00:55.814Z,97586.59
2022-10-13T00:03:22.982Z,97584.03
2022-10-13T00:05:50.762Z,97583.66
2022-10-13T00:08:21.071Z,97574.13
2022-10-13T00:10:49.693Z,97566.97
2022-10-13T00:13:20.550Z,97571.22
2022-10-13T00:15:48.529Z,97563.25
2022-10-13T00:18:15.992Z,97564.19
2022-10-13T00:20:45.044Z,97569.41
2022-10-13T00:23:12.122Z,97561.34
2022-10-13T00:25:43.728Z,97562.19
2022-10-13T00:28:10.854Z,97564.22
2022-10-13T00:30:38.508Z,97564.59
2022-10-13T00:33:05.688Z,97562.00
2022-10-13T00:35:33.047Z,97572.66
2022-10-13T00:37:59.696Z,97568.06
2022-10-13T00:40:30.694Z,97579.28
2022-10-13T00:42:57.271Z,97578.16
2022-10-13T00:45:26.970Z,97566.72
2022-10-13T00:48:00.743Z,97572.66
2022-10-13T00:50:38.349Z,97578.56
2022-10-13T00:53:05.867Z,97566.13
2022-10-13T00:55:35.455Z,97571.19
2022-10-13T00:58:05.695Z,97572.66
2022-10-13T01:00:34.505Z,97570.47
2022-10-13T01:03:03.430Z,97563.84
2022-10-13T01:05:30.954Z,97567.97
2022-10-13T01:07:59.496Z,97557.19
2022-10-13T01:10:47.739Z,97555.38
2022-10-13T01:13:34.451Z,97557.84
2022-10-13T01:16:16.169Z,97551.28
2022-10-13T01:19:23.230Z,97545.34
2022-10-13T01:22:10.982Z,97544.56
2022-10-13T01:24:44.872Z,97546.81
2022-10-13T01:27:43.709Z,97545.13
2022-10-13T01:30:16.400Z,97541.66
2022-10-13T01:32:55.139Z,97549.53
2022-10-13T01:35:47.589Z,97544.13
2022-10-13T01:38:32.537Z,97538.38
2022-10-13T01:41:10.621Z,97529.94
2022-10-13T01:43:49.606Z,97522.84
2022-10-13T01:46:23.553Z,97516.00
2022-10-13T01:48:53.604Z,97512.06
2022-10-13T01:51:23.619Z,97510.69
2022-10-13T01:53:52.800Z,97514.28
2022-10-13T01:56:19.411Z,97510.19
2022-10-13T01:58:50.011Z,97507.84
2022-10-13T02:01:39.534Z,97496.75
2022-10-13T02:04:30.168Z,97495.28
2022-10-13T02:07:15.512Z,97489.44
2022-10-13T02:09:50.525Z,97493.69
2022-10-13T02:12:39.150Z,97496.13
2022-10-13T02:15:09.714Z,97496.88
2022-10-13T02:17:36.573Z,97493.13
2022-10-13T02:20:05.990Z,97494.50
2022-10-13T02:22:42.240Z,97494.16
2022-10-13T02:25:09.568Z,97493.91
2022-10-13T02:27:36.137Z,97486.63
2022-10-13T02:30:02.755Z,97487.28
2022-10-13T02:32:30.674Z,97485.50
2022-10-13T02:34:57.282Z,97474.81
2022-10-13T02:37:25.658Z,97476.63
2022-10-13T02:39:52.550Z,97471.44
2022-10-13T02:42:19.931Z,97473.38
2022-10-13T02:44:46.829Z,97470.84
2022-10-13T02:47:13.458Z,97471.44
2022-10-13T02:49:40.039Z,97462.63
2022-10-13T02:52:06.630Z,97455.38
2022-10-13T02:54:33.217Z,97456.41
2022-10-13T02:56:59.762Z,97454.72
2022-10-13T02:59:26.302Z,97448.69
2022-10-13T03:01:52.874Z,97449.72
2022-10-13T03:04:19.463Z,97453.56
2022-10-13T03:06:46.042Z,97459.13
2022-10-13T03:09:13.502Z,97467.34
2022-10-13T03:11:41.531Z,97461.09
2022-10-13T03:14:08.282Z,97458.94
2022-10-13T03:16:34.914Z,97458.50
2022-10-13T03:19:01.488Z,97461.13
2022-10-13T03:21:28.178Z,97461.78
2022-10-13T03:23:54.809Z,97464.41
2022-10-13T03:26:23.060Z,97457.47
2022-10-13T03:28:52.815Z,97467.13
2022-10-13T03:31:19.452Z,97464.75
2022-10-13T03:33:46.682Z,97462.03
2022-10-13T03:36:13.672Z,97466.19
2022-10-13T03:38:42.408Z,97475.69
2022-10-13T03:41:12.166Z,97471.97
2022-10-13T03:43:39.477Z,97477.91
2022-10-13T03:46:07.325Z,97481.38
2022-10-13T03:48:35.992Z,97475.09
2022-10-13T03:51:13.410Z,97476.59
2022-10-13T03:53:45.752Z,97481.00
2022-10-13T03:56:18.749Z,97481.84
2022-10-13T03:58:54.464Z,97482.59
2022-10-13T04:01:26.518Z,97477.22
2022-10-13T04:03:55.665Z,97476.28
2022-10-13T04:06:23.254Z,97477.22
2022-10-13T04:08:50.281Z,97472.78
2022-10-13T04:11:17.921Z,97468.47
2022-10-13T04:13:50.289Z,97467.78
2022-10-13T04:16:20.186Z,97463.38
2022-10-13T04:18:54.935Z,97459.66
2022-10-13T04:21:22.672Z,97452.34
2022-10-13T04:23:49.611Z,97444.03
2022-10-13T04:26:18.630Z,97440.88
2022-10-13T04:28:46.858Z,97438.94
2022-10-13T04:31:13.821Z,97436.31
2022-10-13T04:33:40.425Z,97434.53
2022-10-13T04:36:09.325Z,97430.22
2022-10-13T04:38:36.499Z,97423.25
2022-10-13T04:41:06.934Z,97424.78
2022-10-13T04:43:34.263Z,97423.81
2022-10-13T04:46:15.816Z,97415.31
2022-10-13T04:48:42.423Z,97416.84
2022-10-13T04:51:14.947Z,97401.81
2022-10-13T04:53:42.286Z,97403.84
2022-10-13T04:56:16.738Z,97403.19
2022-10-13T04:58:44.749Z,97405.16
2022-10-13T05:01:22.296Z,97403.81
2022-10-13T05:03:53.386Z,97398.06
2022-10-13T05:06:23.378Z,97400.69
2022-10-13T05:08:55.920Z,97394.66
2022-10-13T05:11:23.132Z,97399.25
2022-10-13T05:13:49.968Z,97396.78
2022-10-13T05:16:18.009Z,97399.94
2022-10-13T05:18:45.270Z,97414.22
2022-10-13T05:21:22.953Z,97402.81
2022-10-13T05:23:49.952Z,97399.19
2022-10-13T05:26:17.981Z,97403.22
2022-10-13T05:28:45.437Z,97406.28
2022-10-13T05:31:15.060Z,97400.59
2022-10-13T05:33:43.050Z,97403.72
2022-10-13T05:36:16.511Z,97411.28
2022-10-13T05:38:43.887Z,97411.75
2022-10-13T05:41:13.776Z,97417.41
2022-10-13T05:43:42.071Z,97410.03
2022-10-13T05:46:08.998Z,97409.78
2022-10-13T05:48:37.044Z,97407.59
2022-10-13T05:51:10.092Z,97401.91
2022-10-13T05:53:41.994Z,97400.50
2022-10-13T05:56:17.650Z,97387.75
2022-10-13T05:58:47.350Z,97389.16
2022-10-13T06:01:18.486Z,97392.75
2022-10-13T06:03:46.169Z,97395.28
2022-10-13T06:06:12.874Z,97388.97
2022-10-13T06:08:39.575Z,97390.59
2022-10-13T06:11:07.227Z,97386.63
2022-10-13T06:13:33.883Z,97389.00
2022-10-13T06:16:00.561Z,97375.63
2022-10-13T06:18:27.977Z,97386.66
2022-10-13T06:20:54.525Z,97394.28
2022-10-13T06:23:21.310Z,97383.53
2022-10-13T06:25:49.483Z,97392.00
2022-10-13T06:28:18.729Z,97390.03
2022-10-13T06:30:49.371Z,97386.34
2022-10-13T06:33:16.778Z,97381.75
2022-10-13T06:35:43.329Z,97370.91
2022-10-13T06:38:12.326Z,97366.31
2022-10-13T06:40:40.964Z,97372.97
2022-10-13T06:43:07.813Z,97368.06
2022-10-13T06:45:40.835Z,97383.34
2022-10-13T06:48:07.409Z,97376.72
2022-10-13T06:50:34.175Z,97380.84
2022-10-13T06:53:00.761Z,97371.91
2022-10-13T06:55:27.450Z,97375.94
2022-10-13T06:57:54.043Z,97366.69
2022-10-13T07:00:20.995Z,97365.47
2022-10-13T07:02:52.460Z,97361.47
2022-10-13T07:05:19.539Z,97368.97
2022-10-13T07:07:46.359Z,97370.38
2022-10-13T07:10:13.371Z,97362.59
2022-10-13T07:12:41.050Z,97365.38
2022-10-13T07:15:08.100Z,97366.56
2022-10-13T07:17:34.665Z,97359.50
2022-10-13T07:20:05.044Z,97357.16
2022-10-13T07:22:33.772Z,97349.66
2022-10-13T07:25:00.367Z,97357.81
2022-10-13T07:27:27.900Z,97358.88
2022-10-13T07:29:54.755Z,97360.66
2022-10-13T07:32:21.343Z,97362.25
2022-10-13T07:34:47.954Z,97362.25
2022-10-13T07:37:14.579Z,97365.84
2022-10-13T07:39:41.139Z,97370.50
2022-10-13T07:42:07.794Z,97371.44
2022-10-13T07:44:34.364Z,97363.19
2022-10-13T07:47:00.924Z,97362.50
2022-10-13T07:49:27.550Z,97370.09
2022-10-13T07:51:54.310Z,97373.28
2022-10-13T07:54:23.804Z,97371.16
2022-10-13T07:56:56.101Z,97376.63
2022-10-13T07:59:22.906Z,97364.25
2022-10-13T08:01:49.531Z,97354.75
2022-10-13T08:04:16.183Z,97359.31
2022-10-13T08:06:42.779Z,97356.25
2022-10-13T08:09:09.797Z,97367.13
2022-10-13T08:11:36.454Z,97366.38
2022-10-13T08:14:03.406Z,97363.53
2022-10-13T08:16:32.326Z,97356.03
2022-10-13T08:18:59.393Z,97358.66
2022-10-13T08:21:53.295Z,97364.69
2022-10-13T08:24:16.277Z,97370.09
2022-10-13T08:26:44.720Z,97370.69
2022-10-13T08:29:26.766Z,97364.59
2022-10-13T08:31:54.157Z,97362.81
2022-10-13T08:34:22.853Z,97361.09
2022-10-13T08:36:53.050Z,97356.88
2022-10-13T08:39:21.230Z,97351.34
2022-10-13T08:41:48.203Z,97362.44
2022-10-13T08:45:06.346Z,97359.31
2022-10-13T08:47:22.356Z,97360.28
2022-10-13T08:49:49.228Z,97357.69
2022-10-13T08:52:23.171Z,97355.84
2022-10-13T08:54:50.610Z,97354.63
2022-10-13T08:57:18.521Z,97348.78
2022-10-13T08:59:45.932Z,97349.16
2022-10-13T09:02:41.548Z,97356.88
2022-10-13T09:05:18.526Z,97357.72
2022-10-13T09:07:48.433Z,97359.91
2022-10-13T09:10:15.567Z,97367.72
2022-10-13T09:12:42.395Z,97363.13
2022-10-13T09:15:11.787Z,97370.25
2022-10-13T09:17:41.094Z,97360.75
2022-10-13T09:20:27.614Z,97354.50
2022-10-13T09:23:05.615Z,97347.28
2022-10-13T09:25:47.415Z,97346.50
2022-10-13T09:28:26.978Z,97345.09
2022-10-13T09:31:04.659Z,97342.19
2022-10-13T09:33:36.166Z,97329.91
2022-10-13T09:36:03.188Z,97325.72
2022-10-13T09:38:29.778Z,97329.94
2022-10-13T09:41:09.324Z,97327.41
2022-10-13T09:44:00.203Z,97333.56
2022-10-13T09:46:34.193Z,97334.91
2022-10-13T09:49:06.850Z,97335.34
2022-10-13T09:51:37.746Z,97344.53
2022-10-13T09:54:36.882Z,97345.00
2022-10-13T09:57:11.647Z,97337.28
2022-10-13T09:59:45.979Z,97324.75
2022-10-13T10:02:34.561Z,97335.25
2022-10-13T10:05:07.604Z,97341.25
2022-10-13T10:07:34.339Z,97338.63
2022-10-13T10:10:05.522Z,97338.72
2022-10-13T10:12:36.968Z,97333.41
2022-10-13T10:15:26.122Z,97324.00
2022-10-13T10:17:59.933Z,97326.38
2022-10-13T10:20:55.215Z,97331.50
2022-10-13T10:23:26.166Z,97327.25
2022-10-13T10:26:00.767Z,97333.28
2022-10-13T10:28:33.757Z,97335.47
2022-10-13T10:31:24.905Z,97323.25
2022-10-13T10:34:01.642Z,97320.84
2022-10-13T10:36:53.234Z,97330.16
2022-10-13T10:39:39.222Z,97325.41
2022-10-13T10:42:47.289Z,97319.47
2022-10-13T10:45:20.803Z,97316.22
2022-10-13T10:47:51.402Z,97313.50
2022-10-13T10:50:21.980Z,97312.31
2022-10-13T10:53:02.910Z,97298.59
2022-10-13T10:55:39.983Z,97294.44
2022-10-13T10:58:12.926Z,97289.34
2022-10-13T11:01:10.696Z,97277.00
2022-10-13T11:04:10.341Z,97277.25
2022-10-13T11:06:38.515Z,97280.22
2022-10-13T11:09:06.121Z,97275.56
2022-10-13T11:11:40.531Z,97279.41
2022-10-13T11:14:11.830Z,97276.00
2022-10-13T11:17:03.519Z,97269.69
2022-10-13T11:19:32.036Z,97278.50
2022-10-13T11:21:58.530Z,97267.06
2022-10-13T11:24:34.159Z,97266.38
2022-10-13T11:27:15.933Z,97270.19
2022-10-13T11:29:54.929Z,97264.97
2022-10-13T11:32:27.590Z,97268.53
2022-10-13T11:35:10.656Z,97262.59
2022-10-13T11:37:55.808Z,97265.25
2022-10-13T11:40:35.349Z,97262.13
2022-10-13T11:43:46.319Z,97257.50
2022-10-13T11:46:32.229Z,97227.69
2022-10-13T11:50:09.971Z,97234.94
2022-10-13T11:52:44.315Z,97235.81
2022-10-13T11:55:34.428Z,97231.91
2022-10-13T11:58:23.105Z,97226.25
2022-10-13T12:00:56.691Z,97228.75
2022-10-13T12:03:32.376Z,97225.50
2022-10-13T12:06:26.540Z,97229.16
2022-10-13T12:08:53.111Z,97226.69
2022-10-13T12:11:35.554Z,97222.31
2022-10-13T12:14:04.570Z,97213.66
2022-10-13T12:16:31.242Z,97212.84
2022-10-13T12:19:09.725Z,97217.59
2022-10-13T12:21:52.210Z,97207.81
2022-10-13T12:24:21.549Z,97212.94
2022-10-13T12:26:48.114Z,97210.94
2022-10-13T12:29:15.694Z,97210.03
2022-10-13T12:31:45.328Z,97195.75
2022-10-13T12:34:28.155Z,97200.72
2022-10-13T12:37:24.821Z,97196.94
2022-10-13T12:39:51.921Z,97192.59
2022-10-13T12:42:19.242Z,97188.31
2022-10-13T12:44:46.405Z,97193.25
2022-10-13T12:47:51.277Z,97198.53
2022-10-13T12:50:30.204Z,97199.81
2022-10-13T12:53:08.684Z,97201.34
2022-10-13T12:56:01.965Z,97199.13
2022-10-13T12:58:31.557Z,97191.69
2022-10-13T13:01:13.130Z,97191.38
2022-10-13T13:03:42.269Z,97195.72
2022-10-13T13:06:14.662Z,97191.91
2022-10-13T13:08:43.221Z,97187.56
2022-10-13T13:11:32.879Z,97196.06
2022-10-13T13:14:31.956Z,97195.06
2022-10-13T13:17:17.560Z,97189.09
2022-10-13T13:19:55.745Z,97185.06
2022-10-13T13:22:22.844Z,97183.53
2022-10-13T13:24:51.383Z,97195.97
2022-10-13T13:27:25.409Z,97191.06
2022-10-13T13:29:54.261Z,97187.09
2022-10-13T13:32:23.289Z,97189.75
2022-10-13T13:34:49.877Z,97179.22
2022-10-13T13:37:24.083Z,97183.97
2022-10-13T13:39:51.252Z,97183.66
2022-10-13T13:42:17.982Z,97175.47
2022-10-13T13:44:48.015Z,97173.53
2022-10-13T13:47:22.767Z,97178.59
2022-10-13T13:49:51.531Z,97178.06
2022-10-13T13:52:18.350Z,97179.28
2022-10-13T13:54:45.839Z,97172.44
2022-10-13T13:57:13.776Z,97175.41
2022-10-13T13:59:41.305Z,97170.78
2022-10-13T14:02:13.570Z,97160.97
2022-10-13T14:04:40.655Z,97164.44
2022-10-13T14:07:07.260Z,97157.59
2022-10-13T14:09:33.862Z,97163.16
2022-10-13T14:12:00.449Z,97157.16
2022-10-13T14:14:27.377Z,97156.84
2022-10-13T14:16:53.929Z,97166.78
2022-10-13T14:19:20.516Z,97160.03
2022-10-13T14:21:47.293Z,97161.47
2022-10-13T14:24:18.280Z,97158.63
2022-10-13T14:26:44.857Z,97150.78
2022-10-13T14:29:11.486Z,97151.97
2022-10-13T14:31:38.038Z,97153.22
2022-10-13T14:34:04.602Z,97142.94
2022-10-13T14:36:32.550Z,97152.59
2022-10-13T14:38:59.182Z,97143.78
2022-10-13T14:41:26.249Z,97134.91
2022-10-13T14:43:56.801Z,97139.41
2022-10-13T14:46:24.309Z,97134.03
2022-10-13T14:48:51.011Z,97131.75
2022-10-13T14:51:17.705Z,97133.03
2022-10-13T14:53:45.452Z,97136.19
2022-10-13T14:56:24.870Z,97128.38
2022-10-13T14:58:53.495Z,97132.50
2022-10-13T15:01:20.603Z,97130.41
2022-10-13T15:03:47.814Z,97132.41
2022-10-13T15:06:16.325Z,97140.91
2022-10-13T15:08:43.711Z,97151.41
2022-10-13T15:11:11.327Z,97158.63
2022-10-13T15:13:38.851Z,97160.19
2022-10-13T15:16:07.066Z,97157.94
2022-10-13T15:18:36.089Z,97160.22
2022-10-13T15:21:03.019Z,97162.63
2022-10-13T15:23:29.638Z,97161.91
2022-10-13T15:25:59.111Z,97163.94
2022-10-13T15:28:28.653Z,97157.06
2022-10-13T15:30:55.783Z,97162.84
2022-10-13T15:33:22.769Z,97151.41
2022-10-13T15:35:51.338Z,97160.44
2022-10-13T15:38:19.297Z,97157.31
2022-10-13T15:40:46.323Z,97156.69
2022-10-13T15:43:13.479Z,97151.06
2022-10-13T15:45:40.329Z,97146.59
2022-10-13T15:48:08.055Z,97145.50
2022-10-13T15:50:34.734Z,97148.06
2022-10-13T15:53:01.342Z,97149.59
2022-10-13T15:55:28.721Z,97151.88
2022-10-13T15:57:55.428Z,97161.75
2022-10-13T16:00:22.108Z,97154.28
2022-10-13T16:02:50.856Z,97153.56
2022-10-13T16:05:18.877Z,97149.69
2022-10-13T16:07:45.814Z,97151.88
2022-10-13T16:10:14.122Z,97151.25
2022-10-13T16:12:45.454Z,97147.69
2022-10-13T16:15:15.103Z,97139.34
2022-10-13T16:17:41.855Z,97144.78
2022-10-13T16:20:10.682Z,97138.13
2022-10-13T16:22:37.256Z,97144.28
2022-10-13T16:25:05.371Z,97136.34
2022-10-13T16:27:32.313Z,97140.66
2022-10-13T16:29:58.921Z,97143.66
2022-10-13T16:32:25.487Z,97134.38
2022-10-13T16:34:52.697Z,97138.72
2022-10-13T16:37:20.109Z,97140.28
2022-10-13T16:39:51.396Z,97130.78
2022-10-13T16:42:18.685Z,97139.19
2022-10-13T16:44:45.245Z,97132.09
2022-10-13T16:47:17.322Z,97132.44
2022-10-13T16:49:44.898Z,97131.72
2022-10-13T16:52:12.307Z,97135.34
2022-10-13T16:54:38.911Z,97136.19
2022-10-13T16:57:05.495Z,97137.03
2022-10-13T16:59:32.113Z,97133.41
2022-10-13T17:01:59.340Z,97137.75
2022-10-13T17:04:26.050Z,97131.72
2022-10-13T17:06:52.694Z,97137.03
2022-10-13T17:09:19.295Z,97132.56
2022-10-13T17:11:46.480Z,97138.91
2022-10-13T17:14:13.169Z,97136.25
2022-10-13T17:16:40.074Z,97133.53
2022-10-13T17:19:07.275Z,97130.88
2022-10-13T17:21:36.174Z,97138.06
2022-10-13T17:24:04.829Z,97139.28
2022-10-13T17:26:33.160Z,97132.91
2022-10-13T17:28:59.794Z,97134.94
2022-10-13T17:31:26.429Z,97134.84
2022-10-13T17:33:53.358Z,97136.88
2022-10-13T17:36:24.131Z,97148.28
2022-10-13T17:38:52.197Z,97146.81
2022-10-13T17:41:19.386Z,97153.31
2022-10-13T17:43:50.853Z,97155.13
2022-10-13T17:49:07.187Z,97150.28
2022-10-13T17:51:33.958Z,97146.78
2022-10-13T17:54:00.767Z,97141.72
2022-10-13T17:56:27.846Z,97141.13
2022-10-13T17:58:54.906Z,97143.88
2022-10-13T18:01:24.497Z,97141.91
2022-10-13T18:03:57.458Z,97139.94
2022-10-13T18:06:37.973Z,97148.28
2022-10-13T18:09:11.770Z,97147.91
2022-10-13T18:11:39.190Z,97146.09
2022-10-13T18:14:06.757Z,97145.16
2022-10-13T18:16:33.944Z,97146.09
2022-10-13T18:19:00.588Z,97143.44
2022-10-13T18:21:27.676Z,97147.91
2022-10-13T18:23:55.825Z,97143.44
2022-10-13T18:26:23.181Z,97151.16
2022-10-13T18:28:50.951Z,97151.16
2022-10-13T18:31:23.450Z,97148.53
2022-10-13T18:33:59.221Z,97149.25
2022-10-13T18:36:30.837Z,97145.88
2022-10-13T18:39:17.955Z,97139.41
2022-10-13T18:41:47.217Z,97147.34
2022-10-13T18:44:13.889Z,97145.44
2022-10-13T18:46:41.268Z,97140.25
2022-10-13T18:49:10.585Z,97148.53
2022-10-13T18:51:39.165Z,97148.53
2022-10-13T18:54:06.049Z,97146.00
2022-10-13T18:56:34.078Z,97146.84
2022-10-13T18:59:01.809Z,97151.91
2022-10-13T19:01:33.902Z,97146.09
2022-10-13T19:04:00.729Z,97154.41
2022-10-13T19:06:30.405Z,97149.97
2022-10-13T19:09:03.556Z,97155.25
2022-10-13T19:11:31.567Z,97156.47
2022-10-13T19:13:59.166Z,97154.66
2022-10-13T19:16:28.107Z,97153.38
2022-10-13T19:18:54.916Z,97148.19
2022-10-13T19:21:22.563Z,97150.94
2022-10-13T19:23:50.243Z,97148.09
2022-10-13T19:26:25.099Z,97149.81
2022-10-13T19:29:00.355Z,97147.16
2022-10-13T19:31:29.637Z,97149.06
2022-10-13T19:33:56.659Z,97152.31
2022-10-13T19:36:33.599Z,97151.69
2022-10-13T19:39:01.932Z,97161.22
2022-10-13T19:41:30.779Z,97168.06
2022-10-13T19:43:57.889Z,97168.19
2022-10-13T19:46:33.159Z,97172.63
2022-10-13T19:48:59.763Z,97176.13
2022-10-13T19:51:26.366Z,97171.03
2022-10-13T19:53:52.957Z,97171.88
2022-10-13T19:56:25.741Z,97163.94
2022-10-13T19:58:53.099Z,97165.66
2022-10-13T20:01:21.916Z,97162.06
2022-10-13T20:03:48.858Z,97163.03
2022-10-13T20:06:16.474Z,97168.19
2022-10-13T20:08:43.220Z,97161.50
2022-10-13T20:11:12.020Z,97162.16
2022-10-13T20:13:38.836Z,97162.16
2022-10-13T20:16:08.267Z,97156.78
2022-10-13T20:18:35.772Z,97160.38
2022-10-13T20:21:06.913Z,97157.50
2022-10-13T20:23:33.872Z,97155.19
2022-10-13T20:26:05.327Z,97164.91
2022-10-13T20:28:39.236Z,97161.31
2022-10-13T20:31:09.138Z,97156.84
2022-10-13T20:33:36.290Z,97158.56
2022-10-13T20:36:06.621Z,97163.75
2022-10-13T20:38:38.046Z,97162.16
2022-10-13T20:41:05.523Z,97163.19
2022-10-13T20:43:32.102Z,97157.28
2022-10-13T20:46:00.991Z,97161.38
2022-10-13T20:48:51.061Z,97154.53
2022-10-13T20:51:20.319Z,97161.63
2022-10-13T20:53:48.594Z,97160.78
2022-10-13T20:56:20.594Z,97167.16
2022-10-13T20:58:47.171Z,97166.31
2022-10-13T21:01:14.251Z,97164.81
2022-10-13T21:03:41.137Z,97175.50
2022-10-13T21:06:10.679Z,97167.69
2022-10-13T21:08:37.601Z,97172.88
2022-10-13T21:11:09.533Z,97172.97
2022-10-13T21:13:37.118Z,97175.63
2022-10-13T21:16:09.304Z,97170.94
2022-10-13T21:18:35.926Z,97176.13
2022-10-13T21:21:08.005Z,97166.50
2022-10-13T21:23:36.164Z,97167.69
2022-10-13T21:26:05.019Z,97165.06
2022-10-13T21:28:32.211Z,97168.75
2022-10-13T21:31:03.741Z,97166.09
2022-10-13T21:33:33.403Z,97164.09
2022-10-13T21:36:05.850Z,97173.94
2022-10-13T21:38:32.604Z,97179.84
2022-10-13T21:40:59.183Z,97175.28
2022-10-13T21:43:25.802Z,97178.75
2022-10-13T21:45:52.373Z,97169.88
2022-10-13T21:48:18.926Z,97173.47
2022-10-13T21:50:45.478Z,97174.44
2022-10-13T21:53:12.162Z,97170.84
2022-10-13T21:55:38.764Z,97161.34
2022-10-13T21:58:05.620Z,97168.41
2022-10-13T22:00:32.784Z,97163.13
2022-10-13T22:02:59.413Z,97167.34
2022-10-13T22:05:26.069Z,97162.91
2022-10-13T22:07:56.935Z,97161.75
2022-10-13T22:10:23.532Z,97164.59
2022-10-13T22:12:51.127Z,97171.59
2022-10-13T22:15:17.723Z,97171.34
2022-10-13T22:17:44.307Z,97165.09
2022-10-13T22:20:10.877Z,97169.31
2022-10-13T22:22:37.784Z,97162.47
2022-10-13T22:25:04.689Z,97159.81
2022-10-13T22:27:32.093Z,97166.06
2022-10-13T22:29:58.689Z,97157.50
2022-10-13T22:32:25.266Z,97149.25
2022-10-13T22:34:51.853Z,97159.81
2022-10-13T22:37:18.591Z,97154.00
2022-10-13T22:39:45.491Z,97153.09
2022-10-13T22:42:12.056Z,97151.38
2022-10-13T22:44:38.674Z,97157.63
2022-10-13T22:47:05.294Z,97150.66
2022-10-13T22:49:31.875Z,97144.41
2022-10-13T22:51:58.468Z,97153.28
2022-10-13T22:54:25.132Z,97149.56
2022-10-13T22:56:52.379Z,97140.81
2022-10-13T22:59:19.561Z,97139.88
2022-10-13T23:01:46.156Z,97140.91
2022-10-13T23:04:12.718Z,97133.22
2022-10-13T23:06:39.371Z,97136.47
2022-10-13T23:09:10.403Z,97136.47
2022-10-13T23:11:37.726Z,97137.31
2022-10-13T23:14:05.149Z,97137.56
2022-10-13T23:16:32.056Z,97129.41
2022-10-13T23:18:58.626Z,97141.56
2022-10-13T23:21:27.905Z,97143.25
2022-10-13T23:24:02.981Z,97132.69
2022-10-13T23:26:29.968Z,97134.34
2022-10-13T23:28:57.689Z,97133.00
2022-10-13T23:31:25.434Z,97133.13
2022-10-13T23:33:52.035Z,97134.41
2022-10-13T23:36:23.609Z,97131.31
2022-10-13T23:39:10.757Z,97131.31
2022-10-13T23:41:38.078Z,97128.06
2022-10-13T23:44:04.777Z,97130.72
2022-10-13T23:46:31.414Z,97130.59
2022-10-13T23:48:58.091Z,97133.00
2022-10-13T23:51:25.630Z,97137.31
2022-10-13T23:53:53.149Z,97133.50
2022-10-13T23:56:20.196Z,97132.38
2022-10-13T23:58:47.311Z,97128.91
